Time;durP1;ratioP1;P1;durP2;ratioP2;P2;SDS_P1;SDS_P2;PMS_P1;PMS_P2;Temp;Humidity;BMP_temperature;BMP_pressure;BME280_temperature;BME280_humidity;BME280_pressure;Samples;Min_cycle;Max_cycle;Signal;HPM_P1;HPM_P2
2020/12/26 00:01:20;;;;;;;7.37;2.20;;;;;;;1.49;72.39;101255.13;5045030;28;20043;-70
2020/12/26 00:03:46;;;;;;;6.00;2.60;;;;;;;1.47;72.96;101245.50;5042966;28;20041;-70
2020/12/26 00:06:15;;;;;;;7.33;2.47;;;;;;;1.43;72.87;101248.78;5041669;28;20045;-70
2020/12/26 00:08:42;;;;;;;5.30;2.17;;;;;;;1.47;73.15;101245.50;5042901;28;20037;-70
2020/12/26 00:11:09;;;;;;;8.20;2.40;;;;;;;1.42;73.68;101244.41;5044990;28;20106;-70
2020/12/26 00:13:35;;;;;;;13.97;2.43;;;;;;;1.40;73.60;101239.13;5044379;28;20060;-70
2020/12/26 00:16:04;;;;;;;8.67;2.20;;;;;;;1.40;73.51;101238.25;5041333;28;20077;-70
2020/12/26 00:18:29;;;;;;;8.47;2.70;;;;;;;1.41;74.30;101234.81;5041483;28;20041;-70
2020/12/26 00:20:54;;;;;;;8.70;2.30;;;;;;;1.40;73.59;101238.25;5044459;28;20450;-70
2020/12/26 00:23:20;;;;;;;6.47;1.97;;;;;;;1.42;73.74;101232.28;5044523;28;20506;-70
2020/12/26 00:25:45;;;;;;;7.07;2.33;;;;;;;1.40;73.69;101228.72;5042907;28;20505;-70
2020/12/26 00:28:10;;;;;;;7.80;3.07;;;;;;;1.41;72.43;101235.69;5041331;28;20410;-70
2020/12/26 00:30:36;;;;;;;6.80;2.53;;;;;;;1.33;73.18;101233.59;5041572;28;20558;-70
2020/12/26 00:33:01;;;;;;;6.73;1.70;;;;;;;1.32;72.76;101240.53;5044340;28;20410;-70
2020/12/26 00:35:26;;;;;;;8.17;2.27;;;;;;;1.26;73.11;101245.47;5044638;28;20414;-70
2020/12/26 00:37:52;;;;;;;7.33;2.63;;;;;;;1.27;73.11;101237.72;5041868;28;20694;-70
2020/12/26 00:40:18;;;;;;;6.03;1.77;;;;;;;1.31;73.01;101239.63;5042632;28;20488;-70
2020/12/26 00:42:43;;;;;;;10.93;2.13;;;;;;;1.25;73.08;101239.34;5048914;28;20398;-70
2020/12/26 00:45:09;;;;;;;6.07;1.80;;;;;;;1.29;73.42;101233.47;5040935;28;20048;-70
2020/12/26 00:47:34;;;;;;;4.60;1.60;;;;;;;1.28;72.66;101228.19;5040052;28;20037;-70
2020/12/26 00:50:00;;;;;;;7.53;2.07;;;;;;;1.27;72.98;101235.13;5043021;28;20036;-70
2020/12/26 00:52:25;;;;;;;5.40;1.90;;;;;;;1.20;72.81;101230.47;5044222;28;20040;-70
2020/12/26 00:54:51;;;;;;;7.70;2.10;;;;;;;1.19;73.54;101236.50;5041702;28;20032;-70
2020/12/26 00:57:16;;;;;;;4.83;1.73;;;;;;;1.25;72.03;101236.75;5040796;28;20508;-70
2020/12/26 00:59:42;;;;;;;8.03;1.80;;;;;;;1.18;72.49;101241.63;5040610;28;20033;-70
2020/12/26 01:02:07;;;;;;;13.27;2.67;;;;;;;1.20;71.85;101235.66;5042377;28;20411;-70
2020/12/26 01:04:44;;;;;;;6.33;2.00;;;;;;;1.16;72.30;101236.38;5057796;28;20151;-70
2020/12/26 01:07:09;;;;;;;9.37;2.30;;;;;;;1.17;72.11;101235.53;5040579;28;20155;-70
2020/12/26 01:09:34;;;;;;;6.87;2.43;;;;;;;1.18;71.81;101232.13;5104198;22;20136;-74
2020/12/26 01:12:00;;;;;;;6.83;1.73;;;;;;;1.27;71.94;101240.31;5040299;28;20069;-74
2020/12/26 01:14:25;;;;;;;6.47;1.50;;;;;;;1.21;70.82;101246.97;5039178;28;20369;-74
2020/12/26 01:16:51;;;;;;;7.30;2.03;;;;;;;1.25;69.86;101248.88;5042717;28;20037;-74
2020/12/26 01:19:17;;;;;;;5.70;1.70;;;;;;;1.26;69.97;101241.16;5043587;28;20146;-74
2020/12/26 01:21:43;;;;;;;7.77;1.80;;;;;;;1.40;70.15;101243.44;5051832;28;20055;-73
2020/12/26 01:24:08;;;;;;;6.60;1.63;;;;;;;1.45;69.65;101239.34;5051524;28;20029;-74
2020/12/26 01:26:33;;;;;;;7.87;1.80;;;;;;;1.49;69.46;101233.41;5051788;28;20655;-74
2020/12/26 01:29:00;;;;;;;6.93;1.70;;;;;;;1.54;68.50;101244.91;5051551;28;20419;-74
2020/12/26 01:31:26;;;;;;;5.57;1.50;;;;;;;1.50;69.16;101243.91;5051667;28;20043;-74
2020/12/26 01:33:51;;;;;;;5.60;1.87;;;;;;;1.54;69.33;101240.59;5051605;28;20458;-74
2020/12/26 01:36:17;;;;;;;7.37;1.90;;;;;;;1.53;68.79;101254.44;5051782;28;20103;-74
2020/12/26 01:38:42;;;;;;;4.57;1.77;;;;;;;1.57;69.70;101245.03;5051505;28;20053;-74
2020/12/26 01:41:07;;;;;;;5.30;2.13;;;;;;;1.61;69.12;101244.34;5051580;28;20044;-74
2020/12/26 01:43:33;;;;;;;7.03;1.83;;;;;;;1.62;69.94;101253.03;5051102;28;20037;-74
2020/12/26 01:46:00;;;;;;;3.93;1.57;;;;;;;1.60;69.48;101255.59;5051452;28;20515;-74
2020/12/26 01:48:25;;;;;;;8.43;2.20;;;;;;;1.58;69.98;101261.56;5051338;28;20125;-74
2020/12/26 01:50:53;;;;;;;5.17;2.20;;;;;;;1.52;69.58;101259.59;5051345;28;20517;-74
2020/12/26 01:53:19;;;;;;;8.43;2.67;;;;;;;1.46;70.92;101257.59;5051172;28;20108;-74
2020/12/26 01:55:47;;;;;;;8.40;2.60;;;;;;;1.50;71.17;101254.31;5051259;28;20557;-74
2020/12/26 01:58:14;;;;;;;6.40;2.03;;;;;;;1.54;71.09;101256.19;5048765;28;20459;-74
2020/12/26 02:00:40;;;;;;;8.40;2.77;;;;;;;1.44;71.87;101250.53;5048756;28;20039;-74
2020/12/26 02:03:06;;;;;;;10.03;2.63;;;;;;;1.45;71.82;101261.03;5051007;28;20410;-74
2020/12/26 02:05:32;;;;;;;7.10;2.67;;;;;;;1.44;72.12;101263.53;5051224;28;20025;-74
2020/12/26 02:07:57;;;;;;;7.07;2.63;;;;;;;1.34;72.64;101261.38;5051197;28;20068;-74
2020/12/26 02:10:23;;;;;;;9.90;3.10;;;;;;;1.30;72.83;101262.97;5051025;28;20119;-74
2020/12/26 02:12:48;;;;;;;10.07;3.60;;;;;;;1.26;73.40;101267.16;5050764;28;20029;-74
2020/12/26 02:15:14;;;;;;;8.13;2.73;;;;;;;1.22;73.57;101270.44;5051074;28;20044;-74
2020/12/26 02:17:40;;;;;;;6.90;3.53;;;;;;;1.18;73.53;101265.94;5051140;28;20037;-73
2020/12/26 02:20:06;;;;;;;7.23;3.10;;;;;;;1.29;73.33;101269.88;5051311;28;20158;-74
2020/12/26 02:22:31;;;;;;;6.60;3.40;;;;;;;1.17;73.57;101266.75;5050875;28;20040;-74
2020/12/26 02:24:56;;;;;;;7.90;3.27;;;;;;;1.19;73.73;101275.50;5051084;28;20112;-74
2020/12/26 02:27:22;;;;;;;9.90;3.83;;;;;;;1.14;74.04;101271.81;5018940;28;20037;-74
2020/12/26 02:29:47;;;;;;;9.53;3.90;;;;;;;1.11;74.82;101263.88;5054940;28;20080;-74
2020/12/26 02:32:12;;;;;;;7.90;3.20;;;;;;;1.16;74.62;101264.97;5054916;28;20086;-74
2020/12/26 02:34:38;;;;;;;11.17;3.87;;;;;;;1.18;74.18;101258.13;5055053;28;20057;-74
2020/12/26 02:37:03;;;;;;;8.23;3.77;;;;;;;1.13;74.90;101256.13;5055004;28;20040;-74
2020/12/26 02:39:29;;;;;;;11.67;3.47;;;;;;;1.12;74.20;101252.66;5054793;28;20037;-74
2020/12/26 02:41:54;;;;;;;8.50;4.03;;;;;;;1.06;74.79;101248.06;5036901;28;20039;-74
2020/12/26 02:44:19;;;;;;;9.73;3.73;;;;;;;1.08;74.82;101250.75;5036677;28;20048;-74
2020/12/26 02:46:49;;;;;;;10.30;3.53;;;;;;;1.06;74.89;101257.59;5036939;28;20025;-74
2020/12/26 02:49:14;;;;;;;7.83;3.57;;;;;;;1.04;75.23;101248.84;5054690;28;20073;-74
2020/12/26 02:51:39;;;;;;;8.03;3.77;;;;;;;1.00;74.97;101258.22;5054676;28;20124;-74
2020/12/26 02:54:05;;;;;;;8.40;3.43;;;;;;;0.88;75.61;101258.53;5054475;28;20037;-74
2020/12/26 02:56:30;;;;;;;7.90;3.77;;;;;;;0.87;75.76;101251.59;5054608;28;20060;-74
2020/12/26 02:58:55;;;;;;;9.17;3.77;;;;;;;0.88;75.09;101255.94;5054383;28;20120;-74
2020/12/26 03:01:21;;;;;;;7.17;3.23;;;;;;;0.81;75.05;101258.19;5054501;28;20116;-74
2020/12/26 03:03:46;;;;;;;8.17;3.93;;;;;;;0.81;75.47;101255.59;5054173;28;20120;-74
2020/12/26 03:06:12;;;;;;;8.87;3.63;;;;;;;0.82;75.27;101255.69;5054457;28;20144;-74
2020/12/26 03:08:38;;;;;;;9.80;4.00;;;;;;;0.82;75.38;101260.88;5054103;28;20033;-73
2020/12/26 03:11:03;;;;;;;12.47;3.57;;;;;;;0.81;74.81;101255.59;5054366;28;20503;-74
2020/12/26 03:13:29;;;;;;;8.90;3.47;;;;;;;0.79;75.43;101265.06;5053926;28;20028;-74
2020/12/26 03:15:58;;;;;;;8.17;3.63;;;;;;;0.81;74.84;101261.72;5054233;28;20036;-74
2020/12/26 03:18:24;;;;;;;8.00;3.30;;;;;;;0.81;74.90;101269.50;5054146;28;20043;-74
2020/12/26 03:20:49;;;;;;;9.73;3.00;;;;;;;0.69;75.29;101271.53;5054158;28;20115;-74
2020/12/26 03:23:15;;;;;;;8.77;3.13;;;;;;;0.70;75.04;101273.31;5053872;28;20776;-74
2020/12/26 03:25:40;;;;;;;9.00;3.50;;;;;;;0.73;74.52;101269.97;5053940;28;20121;-73
2020/12/26 03:28:05;;;;;;;9.77;3.20;;;;;;;0.67;74.79;101273.19;5054086;28;20056;-74
2020/12/26 03:30:31;;;;;;;10.47;3.60;;;;;;;0.61;75.06;101270.31;5053875;28;20037;-73
2020/12/26 03:32:56;;;;;;;9.87;3.77;;;;;;;0.51;74.59;101281.97;5035784;28;20114;-73
2020/12/26 03:35:21;;;;;;;8.57;3.00;;;;;;;0.34;75.47;101283.81;5053907;28;20037;-74
2020/12/26 03:37:47;;;;;;;8.33;2.77;;;;;;;0.22;75.98;101278.00;5053487;28;20037;-73
2020/12/26 03:40:13;;;;;;;11.03;3.40;;;;;;;0.05;76.45;101292.75;5053701;28;20075;-74
2020/12/26 03:42:38;;;;;;;7.90;3.60;;;;;;;-0.06;76.40;101291.34;5053376;28;20139;-74
2020/12/26 03:45:04;;;;;;;11.10;3.80;;;;;;;-0.15;76.96;101297.00;5053803;28;20072;-74
2020/12/26 03:47:30;;;;;;;6.97;3.20;;;;;;;-0.23;77.37;101298.34;5053711;28;20071;-74
2020/12/26 03:49:55;;;;;;;11.00;3.70;;;;;;;-0.28;77.33;101289.44;5053520;28;20029;-74
2020/12/26 03:52:20;;;;;;;9.03;3.87;;;;;;;-0.35;77.30;101292.53;5053352;28;20495;-74
2020/12/26 03:54:45;;;;;;;7.60;3.90;;;;;;;-0.34;77.77;101295.22;5053519;28;20114;-74
2020/12/26 03:57:13;;;;;;;8.63;3.87;;;;;;;-0.29;77.45;101295.41;5053441;28;20041;-74
2020/12/26 03:59:38;;;;;;;8.47;3.37;;;;;;;-0.29;76.76;101287.63;5051507;28;20041;-73
2020/12/26 04:02:04;;;;;;;10.53;3.80;;;;;;;-0.26;77.18;101288.69;5046489;28;20039;-74
2020/12/26 04:04:29;;;;;;;9.23;4.00;;;;;;;-0.20;76.90;101302.78;5035218;28;20033;-74
2020/12/26 04:06:54;;;;;;;12.07;3.53;;;;;;;-0.17;76.83;101300.34;5053415;28;20129;-74
2020/12/26 04:09:20;;;;;;;8.63;3.73;;;;;;;-0.16;76.59;101305.56;5053030;28;20079;-74
2020/12/26 04:11:46;;;;;;;8.50;2.77;;;;;;;-0.07;76.30;101313.84;5053140;28;20032;-74
2020/12/26 04:14:12;;;;;;;5.30;2.83;;;;;;;-0.13;76.19;101318.72;5052994;28;20044;-74
2020/12/26 04:16:37;;;;;;;5.93;3.13;;;;;;;-0.07;75.82;101321.63;5053140;28;20058;-74
2020/12/26 04:19:03;;;;;;;7.07;3.10;;;;;;;-0.06;75.62;101325.97;5035271;28;20530;-74
2020/12/26 04:21:28;;;;;;;9.53;3.83;;;;;;;-0.08;75.98;101339.69;5053060;28;20036;-74
2020/12/26 04:23:54;;;;;;;7.00;3.60;;;;;;;-0.11;75.83;101335.25;5052688;28;20183;-74
2020/12/26 04:26:20;;;;;;;10.57;3.40;;;;;;;-0.11;75.92;101337.84;5052912;28;20036;-74
2020/12/26 04:28:46;;;;;;;8.43;2.80;;;;;;;-0.08;75.44;101340.59;5052672;28;20048;-74
2020/12/26 04:31:12;;;;;;;9.33;3.23;;;;;;;-0.19;75.93;101341.75;5052909;28;20167;-74
2020/12/26 04:33:37;;;;;;;6.03;2.80;;;;;;;-0.14;75.92;101345.47;5052566;28;20108;-74
2020/12/26 04:36:03;;;;;;;9.43;4.10;;;;;;;-0.12;76.19;101350.75;5035046;28;20047;-74
2020/12/26 04:38:28;;;;;;;7.47;2.87;;;;;;;-0.10;75.89;101354.31;5035109;28;20037;-74
2020/12/26 04:40:53;;;;;;;10.07;3.07;;;;;;;-0.08;75.46;101357.84;5052530;28;20033;-74
2020/12/26 04:43:19;;;;;;;7.40;3.20;;;;;;;-0.14;76.05;101360.16;5052301;28;20071;-74
2020/12/26 04:45:44;;;;;;;7.07;3.30;;;;;;;-0.20;76.71;101355.56;5052540;28;20031;-74
2020/12/26 04:48:14;;;;;;;8.57;4.07;;;;;;;-0.18;76.08;101347.81;5052586;28;20040;-74
2020/12/26 04:50:46;;;;;;;7.60;3.00;;;;;;;-0.25;76.34;101342.34;5051629;28;20411;-74
2020/12/26 04:53:15;;;;;;;5.93;2.80;;;;;;;-0.23;75.82;101347.63;5052293;28;20112;-74
2020/12/26 04:55:45;;;;;;;9.10;3.20;;;;;;;-0.27;76.39;101348.25;5030932;28;20171;-74
2020/12/26 04:58:11;;;;;;;8.73;3.83;;;;;;;-0.25;76.71;101342.34;5052173;28;20044;-74
2020/12/26 05:00:38;;;;;;;8.07;3.10;;;;;;;-0.15;76.46;101338.50;5052145;28;20131;-74
2020/12/26 05:03:09;;;;;;;7.97;2.90;;;;;;;-0.09;75.72;101336.22;5051868;28;20048;-74
2020/12/26 05:05:37;;;;;;;6.87;3.57;;;;;;;-0.02;76.28;101340.00;5052233;28;20045;-74
2020/12/26 05:08:07;;;;;;;8.77;3.10;;;;;;;-0.02;75.64;101346.09;5034385;28;20036;-74
2020/12/26 05:10:33;;;;;;;9.27;3.63;;;;;;;0.05;75.90;101336.00;5034248;28;20581;-74
2020/12/26 05:13:00;;;;;;;7.77;3.60;;;;;;;0.09;75.23;101337.94;5051882;28;20016;-74
2020/12/26 05:15:26;;;;;;;7.90;3.43;;;;;;;0.14;75.51;101339.06;5051930;28;20040;-74
2020/12/26 05:17:52;;;;;;;9.07;3.60;;;;;;;0.18;75.16;101338.38;5051978;28;20124;-74
2020/12/26 05:20:18;;;;;;;7.40;3.47;;;;;;;0.24;75.15;101348.16;5051799;28;20032;-74
2020/12/26 05:22:43;;;;;;;6.70;2.90;;;;;;;0.25;75.08;101345.66;5051544;28;20025;-74
2020/12/26 05:25:09;;;;;;;10.50;3.30;;;;;;;0.25;74.98;101340.47;5051827;28;20514;-74
2020/12/26 05:27:36;;;;;;;7.80;3.13;;;;;;;0.21;74.44;101341.16;5051805;28;20037;-74
2020/12/26 05:30:03;;;;;;;8.50;3.73;;;;;;;0.15;74.90;101336.53;5051514;28;20036;-74
2020/12/26 05:32:28;;;;;;;7.27;3.47;;;;;;;0.09;75.59;101333.63;5051452;28;20045;-74
2020/12/26 05:35:02;;;;;;;6.23;3.20;;;;;;;0.17;74.64;101337.50;5033883;28;20044;-74
2020/12/26 05:37:29;;;;;;;5.57;3.13;;;;;;;0.10;74.83;101329.34;5051615;28;20086;-74
2020/12/26 05:39:58;;;;;;;10.60;3.40;;;;;;;0.08;74.51;101324.09;5051516;28;20119;-74
2020/12/26 05:42:23;;;;;;;8.43;3.93;;;;;;;0.01;74.71;101318.50;5033327;28;20037;-74
2020/12/26 05:44:49;;;;;;;6.87;3.97;;;;;;;-0.01;74.36;101319.31;5051497;28;20048;-74
2020/12/26 05:47:14;;;;;;;8.63;4.67;;;;;;;0.01;74.96;101313.31;5051436;28;20507;-74
2020/12/26 05:49:40;;;;;;;9.47;4.50;;;;;;;0.06;75.28;101314.44;5051393;28;20586;-74
2020/12/26 05:52:08;;;;;;;8.03;4.20;;;;;;;0.04;75.26;101313.47;5051285;28;20086;-74
2020/12/26 05:54:34;;;;;;;10.23;4.77;;;;;;;0.03;75.13;101314.25;5033565;28;20054;-74
2020/12/26 05:57:10;;;;;;;8.73;3.97;;;;;;;0.12;75.01;101307.81;5051378;28;20395;-74
2020/12/26 05:59:37;;;;;;;8.93;4.20;;;;;;;0.13;75.32;101325.19;5051156;28;20041;-74
2020/12/26 06:02:16;;;;;;;6.97;4.00;;;;;;;0.12;74.68;101326.00;5051142;28;20126;-74
2020/12/26 06:04:50;;;;;;;8.87;4.27;;;;;;;0.03;74.80;101325.56;5042665;28;20048;-74
2020/12/26 06:07:16;;;;;;;12.13;4.70;;;;;;;0.02;75.11;101330.66;5051199;28;20033;-74
2020/12/26 06:09:44;;;;;;;8.77;4.10;;;;;;;0.03;75.38;101332.44;5050874;28;20395;-74
2020/12/26 06:12:15;;;;;;;8.43;3.93;;;;;;;0.00;75.63;101325.41;5050967;28;20041;-74
2020/12/26 06:14:41;;;;;;;8.07;3.77;;;;;;;0.03;75.45;101329.84;5051169;28;20630;-74
2020/12/26 06:17:08;;;;;;;7.47;4.30;;;;;;;-0.05;75.81;101330.38;5051154;28;20047;-74
2020/12/26 06:19:36;;;;;;;9.97;4.77;;;;;;;-0.11;75.32;101339.53;5051014;28;20033;-74
2020/12/26 06:22:01;;;;;;;8.97;3.80;;;;;;;-0.24;75.78;101338.94;5050871;28;20037;-74
2020/12/26 06:24:27;;;;;;;7.53;3.70;;;;;;;-0.46;76.68;101349.91;5050847;28;20537;-75
2020/12/26 06:26:58;;;;;;;9.23;3.70;;;;;;;-0.59;76.71;101347.50;5051026;28;20702;-74
2020/12/26 06:29:29;;;;;;;10.07;4.00;;;;;;;-0.69;76.71;101346.13;5050962;28;20049;-74
2020/12/26 06:31:56;;;;;;;6.93;3.57;;;;;;;-0.78;77.07;101348.25;5050989;28;20041;-74
2020/12/26 06:34:22;;;;;;;9.30;4.10;;;;;;;-0.89;77.86;101347.69;5050706;28;20115;-74
2020/12/26 06:36:53;;;;;;;8.17;4.17;;;;;;;-0.98;77.85;101349.78;5050822;28;20468;-74
2020/12/26 06:39:28;;;;;;;11.17;4.67;;;;;;;-1.07;78.84;101350.97;5050842;28;20040;-74
2020/12/26 06:42:09;;;;;;;10.50;4.50;;;;;;;-1.18;78.59;101342.63;5051218;28;20037;-74
2020/12/26 06:44:35;;;;;;;7.83;4.87;;;;;;;-1.21;78.31;101342.47;5050728;28;20043;-74
2020/12/26 06:47:01;;;;;;;11.73;5.03;;;;;;;-1.24;79.17;101329.34;5050811;28;20414;-74
2020/12/26 06:49:26;;;;;;;12.27;5.47;;;;;;;-1.31;79.43;101333.34;5032842;28;20039;-74
2020/12/26 06:51:52;;;;;;;12.10;5.30;;;;;;;-1.35;79.50;101332.25;5050770;28;20123;-74
2020/12/26 06:54:37;;;;;;;11.33;5.77;;;;;;;-1.38;79.56;101331.22;5050476;28;20091;-74
2020/12/26 06:57:02;;;;;;;10.33;5.03;;;;;;;-1.41;79.25;101326.75;5043194;28;20044;-74
2020/12/26 06:59:31;;;;;;;14.27;5.53;;;;;;;-1.43;79.23;101325.78;5050555;28;20567;-74
2020/12/26 07:02:03;;;;;;;10.13;5.87;;;;;;;-1.46;79.48;101335.97;5050663;28;20506;-74
2020/12/26 07:04:36;;;;;;;12.18;6.07;;;;;;;-1.48;79.23;101334.97;5050551;28;20041;-74
2020/12/26 07:07:01;;;;;;;12.07;5.80;;;;;;;-1.48;80.01;101336.69;5042870;28;20407;-74
2020/12/26 07:09:35;;;;;;;15.53;7.13;;;;;;;-1.52;79.79;101348.53;5050515;28;20029;-73
2020/12/26 07:12:03;;;;;;;13.20;6.93;;;;;;;-1.53;79.66;101340.72;5042653;28;20115;-72
2020/12/26 07:14:33;;;;;;;15.17;6.93;;;;;;;-1.56;79.01;101342.31;5054263;28;20112;-73
2020/12/26 07:17:00;;;;;;;13.17;7.10;;;;;;;-1.61;80.07;101343.75;5046138;28;20029;-73
2020/12/26 07:19:29;;;;;;;13.20;6.67;;;;;;;-1.58;79.96;101348.22;5054181;28;20040;-72
2020/12/26 07:22:06;;;;;;;17.73;7.40;;;;;;;-1.61;79.57;101348.94;5054157;28;20091;-73
2020/12/26 07:24:33;;;;;;;12.40;6.77;;;;;;;-1.60;79.78;101342.97;5035974;28;20068;-73
2020/12/26 07:27:25;;;;;;;11.70;7.00;;;;;;;-1.62;80.30;101334.22;5056445;28;20081;-73
2020/12/26 07:29:58;;;;;;;15.43;6.88;;;;;;;-1.56;80.04;101334.56;5052257;28;20411;-73
2020/12/26 07:32:40;;;;;;;10.43;6.13;;;;;;;-1.52;79.19;101333.00;5053727;28;20041;-73
2020/12/26 07:35:06;;;;;;;11.83;6.80;;;;;;;-1.50;79.42;101339.19;5046571;28;20036;-73
2020/12/26 07:37:32;;;;;;;13.93;6.67;;;;;;;-1.44;79.40;101342.13;5053965;28;20029;-72
2020/12/26 07:39:58;;;;;;;12.73;7.13;;;;;;;-1.35;79.83;101349.50;5053757;28;20078;-72
2020/12/26 07:42:23;;;;;;;13.83;6.57;;;;;;;-1.19;79.57;101348.63;5053480;28;20447;-73
2020/12/26 07:44:49;;;;;;;12.57;6.90;;;;;;;-1.14;79.12;101352.38;5053826;28;20043;-73
2020/12/26 07:47:15;;;;;;;14.27;7.20;;;;;;;-1.03;79.11;101359.00;5053683;28;20064;-73
2020/12/26 07:49:40;;;;;;;11.13;6.30;;;;;;;-0.87;78.82;101352.94;5053454;28;20094;-73
2020/12/26 07:52:08;;;;;;;12.80;6.73;;;;;;;-0.73;78.87;101356.28;5053427;28;20032;-72
2020/12/26 07:54:34;;;;;;;13.03;7.07;;;;;;;-0.58;78.50;101350.97;5035723;28;20029;-73
2020/12/26 07:56:59;;;;;;;11.13;6.33;;;;;;;-0.47;77.78;101344.69;5053610;28;20040;-73
2020/12/26 07:59:25;;;;;;;10.97;6.40;;;;;;;-0.38;77.77;101345.13;5035526;28;20055;-73
2020/12/26 08:01:52;;;;;;;10.23;6.10;;;;;;;-0.31;77.30;101346.34;5048563;28;20033;-73
2020/12/26 08:04:18;;;;;;;9.23;6.33;;;;;;;-0.29;76.87;101348.22;5052968;28;20037;-73
2020/12/26 08:06:45;;;;;;;14.27;6.93;;;;;;;-0.31;77.19;101341.16;5053370;28;20044;-73
2020/12/26 08:09:12;;;;;;;10.47;6.50;;;;;;;-0.32;76.95;101339.34;5053049;28;20103;-73
2020/12/26 08:11:38;;;;;;;11.80;6.77;;;;;;;-0.30;76.91;101345.53;5035531;28;20037;-73
2020/12/26 08:14:03;;;;;;;16.03;7.50;;;;;;;-0.33;76.77;101353.16;5053051;28;20032;-73
2020/12/26 08:16:30;;;;;;;11.53;6.87;;;;;;;-0.28;76.62;101351.69;5053254;28;20041;-73
2020/12/26 08:18:55;;;;;;;11.30;7.03;;;;;;;-0.25;76.27;101346.66;5052933;28;20093;-73
2020/12/26 08:21:21;;;;;;;17.20;7.53;;;;;;;-0.29;77.08;101348.22;5053093;28;20123;-72
2020/12/26 08:24:02;;;;;;;12.63;7.37;;;;;;;-0.23;76.62;101345.03;5051780;28;20036;-72
2020/12/26 08:26:29;;;;;;;13.53;6.87;;;;;;;-0.16;76.11;101341.00;5052956;28;20048;-73
2020/12/26 08:29:04;;;;;;;10.97;6.80;;;;;;;-0.09;75.89;101343.13;5052823;28;20037;-73
2020/12/26 08:31:32;;;;;;;13.83;7.00;;;;;;;-0.06;76.20;101341.53;5052898;28;20037;-73
2020/12/26 08:34:12;;;;;;;12.37;7.17;;;;;;;0.03;75.52;101332.44;5052557;28;20061;-73
2020/12/26 08:36:43;;;;;;;11.83;7.30;;;;;;;0.02;75.42;101328.06;5052815;28;20044;-73
2020/12/26 08:39:08;;;;;;;13.27;6.90;;;;;;;0.04;74.95;101331.63;5052781;28;20055;-73
2020/12/26 08:41:39;;;;;;;12.77;6.07;;;;;;;0.21;75.05;101342.03;5052633;28;20471;-73
2020/12/26 08:44:09;;;;;;;14.17;6.43;;;;;;;0.20;75.20;101347.13;5052401;28;20086;-73
2020/12/26 08:46:42;;;;;;;9.10;5.80;;;;;;;0.30;74.95;101348.47;5052637;28;20509;-73
2020/12/26 08:49:07;;;;;;;11.43;5.93;;;;;;;0.32;74.57;101342.56;5052402;28;20052;-73
2020/12/26 08:51:39;;;;;;;12.27;6.77;;;;;;;0.42;74.93;101351.69;5052508;28;20479;-73
2020/12/26 08:54:05;;;;;;;11.77;5.95;;;;;;;0.49;74.49;101356.31;5044999;28;20380;-73
2020/12/26 08:56:38;;;;;;;11.63;5.97;;;;;;;0.55;74.40;101356.63;5052308;28;20040;-73
2020/12/26 08:59:04;;;;;;;13.77;6.40;;;;;;;0.62;74.18;101356.09;5044754;28;20037;-73
2020/12/26 09:01:30;;;;;;;12.07;6.13;;;;;;;0.73;73.69;101360.91;5052321;28;20107;-73
2020/12/26 09:03:56;;;;;;;11.33;6.20;;;;;;;0.85;73.59;101370.16;5051911;28;20121;-73
2020/12/26 09:06:32;;;;;;;9.43;5.63;;;;;;;1.01;72.49;101368.28;5052228;28;20033;-73
2020/12/26 09:08:57;;;;;;;12.17;5.87;;;;;;;1.18;72.80;101369.03;5051858;28;20045;-73
2020/12/26 09:11:30;;;;;;;11.30;7.47;;;;;;;1.28;72.24;101368.63;5052059;28;20044;-73
2020/12/26 09:13:55;;;;;;;11.18;7.25;;;;;;;1.37;71.53;101373.38;5052076;28;20391;-73
2020/12/26 09:16:21;;;;;;;11.70;5.03;;;;;;;1.43;70.79;101378.84;5051980;28;20033;-73
2020/12/26 09:18:50;;;;;;;12.40;6.47;;;;;;;1.43;70.56;101376.22;5051796;28;20177;-73
2020/12/26 09:21:21;;;;;;;10.40;5.77;;;;;;;1.49;70.05;101371.28;5051912;28;20040;-73
2020/12/26 09:23:47;;;;;;;10.23;6.03;;;;;;;1.58;70.27;101368.22;5051578;28;20692;-73
2020/12/26 09:26:20;;;;;;;9.40;5.80;;;;;;;1.68;69.47;101376.50;5051892;28;20071;-72
2020/12/26 09:28:50;;;;;;;11.02;5.53;;;;;;;1.63;69.72;101374.53;5051710;28;20036;-73
2020/12/26 09:31:19;;;;;;;10.90;6.17;;;;;;;1.68;70.07;101375.59;5052130;28;20391;-73
2020/12/26 09:33:45;;;;;;;10.50;5.60;;;;;;;1.73;69.43;101377.59;5051427;28;20434;-73
2020/12/26 09:36:14;;;;;;;10.87;4.97;;;;;;;1.77;69.55;101378.59;5051279;28;20028;-73
2020/12/26 09:38:40;;;;;;;9.50;4.60;;;;;;;1.81;69.80;101369.19;5051468;28;20036;-73
2020/12/26 09:41:12;;;;;;;10.67;5.13;;;;;;;1.68;68.80;101363.47;5051626;28;20033;-73
2020/12/26 09:43:38;;;;;;;9.30;4.57;;;;;;;1.56;69.06;101367.25;5051158;28;20037;-74
2020/12/26 09:46:03;;;;;;;10.00;4.50;;;;;;;1.48;69.47;101359.13;5051559;28;20032;-73
2020/12/26 09:48:29;;;;;;;9.30;4.87;;;;;;;1.44;69.85;101365.00;5051269;28;20564;-73
2020/12/26 09:50:54;;;;;;;11.63;4.90;;;;;;;1.53;70.11;101360.22;5051422;28;20120;-73
2020/12/26 09:53:19;;;;;;;11.27;4.70;;;;;;;1.45;69.77;101359.88;5048810;28;20079;-72
2020/12/26 09:55:45;;;;;;;9.60;5.07;;;;;;;1.51;70.28;101359.25;5049544;28;20037;-73
2020/12/26 09:58:10;;;;;;;9.40;4.50;;;;;;;1.58;70.30;101355.22;5051397;28;20036;-73
2020/12/26 10:00:35;;;;;;;9.73;4.50;;;;;;;1.60;70.48;101362.25;5051440;28;20037;-73
2020/12/26 10:03:01;;;;;;;9.50;5.70;;;;;;;1.53;70.30;101361.09;5050925;28;20440;-73
2020/12/26 10:05:26;;;;;;;10.17;5.00;;;;;;;1.42;70.31;101341.53;5051244;28;20563;-73
2020/12/26 10:07:51;;;;;;;9.77;5.20;;;;;;;1.35;70.48;101349.88;5033689;28;20037;-73
2020/12/26 10:10:17;;;;;;;10.43;4.60;;;;;;;1.35;71.05;101351.59;5050997;28;20388;-73
2020/12/26 10:12:42;;;;;;;8.63;4.07;;;;;;;1.30;70.59;101351.38;5050862;28;20033;-72
2020/12/26 10:15:07;;;;;;;6.90;4.03;;;;;;;1.27;70.78;101346.06;5051218;28;20124;-73
2020/12/26 10:17:33;;;;;;;7.97;3.80;;;;;;;1.40;71.58;101343.16;5051068;28;20061;-73
2020/12/26 10:19:58;;;;;;;9.10;4.40;;;;;;;1.51;70.49;101341.91;5033074;28;20103;-73
2020/12/26 10:22:23;;;;;;;9.50;4.50;;;;;;;1.58;70.97;101348.28;5050760;28;20639;-73
2020/12/26 10:24:49;;;;;;;8.10;4.17;;;;;;;1.67;70.45;101338.25;5050960;28;20033;-74
2020/12/26 10:27:14;;;;;;;8.63;4.60;;;;;;;1.74;69.98;101342.91;5051053;28;20040;-74
2020/12/26 10:29:39;;;;;;;9.70;3.97;;;;;;;1.77;69.98;101334.34;5050890;28;20044;-73
2020/12/26 10:32:05;;;;;;;9.37;4.20;;;;;;;1.91;70.29;101334.91;5050870;28;20041;-73
2020/12/26 10:34:30;;;;;;;10.90;4.20;;;;;;;1.91;68.88;101333.22;5050795;28;20025;-73
2020/12/26 10:36:56;;;;;;;8.97;4.40;;;;;;;2.02;69.24;101333.66;5051012;28;20506;-73
2020/12/26 10:39:21;;;;;;;10.73;5.00;;;;;;;2.05;69.56;101327.69;5032896;28;20098;-73
2020/12/26 10:41:47;;;;;;;7.00;4.15;;;;;;;2.21;69.57;101316.19;5050893;28;20036;-73
2020/12/26 10:44:12;;;;;;;10.10;4.25;;;;;;;2.37;68.80;101322.06;5050586;28;20037;-73
2020/12/26 10:46:38;;;;;;;7.07;3.75;;;;;;;2.52;68.40;101326.13;5032923;28;20459;-73
2020/12/26 10:49:03;;;;;;;8.88;4.30;;;;;;;2.58;67.44;101329.84;5053997;28;20040;-73
2020/12/26 10:51:29;;;;;;;6.55;3.63;;;;;;;2.46;68.01;101326.72;5054799;28;20175;-73
2020/12/26 10:53:54;;;;;;;9.05;4.40;;;;;;;2.41;68.27;101321.38;5054442;28;20025;-73
2020/12/26 10:56:19;;;;;;;10.43;4.05;;;;;;;2.50;67.94;101320.84;5054687;28;20041;-73
2020/12/26 10:58:45;;;;;;;6.95;3.75;;;;;;;2.64;67.78;101319.63;5054483;28;20052;-73
2020/12/26 11:01:10;;;;;;;8.02;3.75;;;;;;;2.73;67.22;101320.84;5036646;28;20045;-74
2020/12/26 11:03:35;;;;;;;8.05;3.78;;;;;;;2.77;67.36;101309.69;5054112;28;20041;-73
2020/12/26 11:06:01;;;;;;;7.35;3.67;;;;;;;2.87;67.48;101301.38;5054536;28;20039;-73
2020/12/26 11:08:27;;;;;;;8.32;3.67;;;;;;;2.95;67.37;101305.16;5054274;28;20037;-73
2020/12/26 11:10:52;;;;;;;8.65;3.72;;;;;;;3.02;67.20;101307.16;5036541;28;20028;-73
2020/12/26 11:13:17;;;;;;;7.05;3.67;;;;;;;3.11;67.35;101295.28;5054198;28;20480;-73
2020/12/26 11:15:43;;;;;;;10.18;4.00;;;;;;;3.20;66.56;101298.25;5054224;28;20033;-73
2020/12/26 11:18:08;;;;;;;10.77;3.70;;;;;;;3.27;66.38;101297.63;5054211;28;20126;-72
2020/12/26 11:20:33;;;;;;;9.07;3.78;;;;;;;3.15;67.16;101298.06;5054123;28;20036;-73
2020/12/26 11:22:59;;;;;;;8.07;3.72;;;;;;;3.17;67.36;101296.41;5053828;28;20094;-73
2020/12/26 11:25:24;;;;;;;13.63;4.25;;;;;;;3.18;67.29;101292.97;5054188;28;20040;-73